EmailTwitter


Observations de surface / Québec / CYUL (71627)

Régions: Québec | Canada | États-Unis | Europe | France | UK | Ailleurs
Station
Affichage
Infos & localisation pour CYUL (71627) | Aide pour décoder les METARs

Observations prises le 2018-08-17 à 01H00 UTC à MONTREAL INTL A, QB (CYUL)

Etat du ciel: partiellement nuageux.

Température: 21.0 Celsius

Point de rosée: 13.0 Celsius

Humidité relative: 60%

Vents: Sud-ouest à 6 km/h ou 3 noeuds.

Pression au niveau moyen de la mer: 101.79 kilopascals.

Calage altimétrique: 101.76 kilopascals ou 30.05 pouces de mercure.

Visibilité horizontale: 15.00 milles terrestres ou 24.00 kilomètres.

Hauteur du plafond: 7620 mètres ( 25000 pieds ).

Observation METAR:

CYUL 170100Z 24003KT 15SM BKN250 21/13 A3005 RMK CS6 SLP179 DENSITY ALT 800FT=